sensor_id;sensor_type;location;lat;lon;timestamp;pressure;altitude;pressure_sealevel;temperature;humidity
63535;BME280;55128;50.230;18.944;2023-03-22T00:01:55;98357.16;;;7.31;80.31
63535;BME280;55128;50.230;18.944;2023-03-22T00:06:56;98359.31;;;7.20;80.12
63535;BME280;55128;50.230;18.944;2023-03-22T00:11:56;98362.06;;;7.17;79.51
63535;BME280;55128;50.230;18.944;2023-03-22T00:16:57;98359.88;;;7.05;79.51
63535;BME280;55128;50.230;18.944;2023-03-22T00:21:57;98362.38;;;6.84;81.17
63535;BME280;55128;50.230;18.944;2023-03-22T00:26:59;98349.19;;;6.84;81.01
63535;BME280;55128;50.230;18.944;2023-03-22T00:32:00;98353.88;;;6.76;80.87
63535;BME280;55128;50.230;18.944;2023-03-22T00:37:00;98342.72;;;6.68;80.44
63535;BME280;55128;50.230;18.944;2023-03-22T00:42:03;98327.97;;;6.62;82.00
63535;BME280;55128;50.230;18.944;2023-03-22T00:47:03;98325.53;;;6.31;84.57
63535;BME280;55128;50.230;18.944;2023-03-22T00:52:04;98326.84;;;6.44;84.74
63535;BME280;55128;50.230;18.944;2023-03-22T00:57:04;98321.75;;;6.38;83.40
63535;BME280;55128;50.230;18.944;2023-03-22T01:02:05;98329.47;;;6.17;83.64
63535;BME280;55128;50.230;18.944;2023-03-22T01:07:06;98325.19;;;6.13;83.80
63535;BME280;55128;50.230;18.944;2023-03-22T01:12:07;98319.81;;;6.18;83.03
63535;BME280;55128;50.230;18.944;2023-03-22T01:17:08;98313.97;;;6.08;82.71
63535;BME280;55128;50.230;18.944;2023-03-22T01:22:09;98299.38;;;5.98;83.06
63535;BME280;55128;50.230;18.944;2023-03-22T01:27:09;98298.47;;;5.99;82.62
63535;BME280;55128;50.230;18.944;2023-03-22T01:32:10;98287.69;;;5.78;82.30
63535;BME280;55128;50.230;18.944;2023-03-22T01:37:10;98288.09;;;5.64;81.92
63535;BME280;55128;50.230;18.944;2023-03-22T01:42:14;98289.44;;;5.50;81.63
63535;BME280;55128;50.230;18.944;2023-03-22T01:47:15;98295.88;;;5.41;81.23
63535;BME280;55128;50.230;18.944;2023-03-22T01:52:15;98293.63;;;5.27;80.59
63535;BME280;55128;50.230;18.944;2023-03-22T01:57:15;98282.50;;;5.19;80.81
63535;BME280;55128;50.230;18.944;2023-03-22T02:02:17;98271.03;;;5.20;82.88
63535;BME280;55128;50.230;18.944;2023-03-22T02:07:18;98268.00;;;5.04;82.68
63535;BME280;55128;50.230;18.944;2023-03-22T02:28:49;98258.41;;;4.73;80.75
63535;BME280;55128;50.230;18.944;2023-03-22T02:34:57;98249.25;;;4.55;81.12
63535;BME280;55128;50.230;18.944;2023-03-22T02:55:20;98221.63;;;4.40;82.32
63535;BME280;55128;50.230;18.944;2023-03-22T03:00:24;98219.91;;;4.39;82.63
63535;BME280;55128;50.230;18.944;2023-03-22T03:05:27;98228.09;;;4.28;82.59
63535;BME280;55128;50.230;18.944;2023-03-22T03:10:30;98228.56;;;4.10;83.19
63535;BME280;55128;50.230;18.944;2023-03-22T03:15:30;98234.19;;;3.96;84.23
63535;BME280;55128;50.230;18.944;2023-03-22T03:25:58;98243.50;;;4.08;83.80
63535;BME280;55128;50.230;18.944;2023-03-22T03:31:17;98246.47;;;4.28;83.37
63535;BME280;55128;50.230;18.944;2023-03-22T03:36:24;98253.31;;;4.34;83.54
63535;BME280;55128;50.230;18.944;2023-03-22T03:41:27;98255.56;;;4.48;83.12
63535;BME280;55128;50.230;18.944;2023-03-22T03:46:29;98256.09;;;4.61;83.54
63535;BME280;55128;50.230;18.944;2023-03-22T03:51:29;98255.53;;;4.81;83.36
63535;BME280;55128;50.230;18.944;2023-03-22T03:56:31;98243.66;;;4.67;85.82
63535;BME280;55128;50.230;18.944;2023-03-22T04:01:32;98255.59;;;5.09;87.23
63535;BME280;55128;50.230;18.944;2023-03-22T04:06:32;98247.56;;;5.42;87.02
63535;BME280;55128;50.230;18.944;2023-03-22T04:11:33;98247.59;;;5.40;85.42
63535;BME280;55128;50.230;18.944;2023-03-22T04:16:34;98243.31;;;5.38;85.22
63535;BME280;55128;50.230;18.944;2023-03-22T04:21:34;98255.09;;;5.54;86.26
63535;BME280;55128;50.230;18.944;2023-03-22T04:26:35;98244.91;;;5.70;85.87
63535;BME280;55128;50.230;18.944;2023-03-22T04:31:35;98249.78;;;5.82;85.11
63535;BME280;55128;50.230;18.944;2023-03-22T04:36:37;98243.00;;;5.75;83.65
63535;BME280;55128;50.230;18.944;2023-03-22T04:41:38;98248.19;;;5.78;84.60
63535;BME280;55128;50.230;18.944;2023-03-22T04:46:38;98244.25;;;5.90;84.87
63535;BME280;55128;50.230;18.944;2023-03-22T04:51:39;98243.06;;;6.00;84.95
63535;BME280;55128;50.230;18.944;2023-03-22T04:56:39;98244.41;;;6.14;84.47
63535;BME280;55128;50.230;18.944;2023-03-22T05:01:39;98242.56;;;6.16;85.00
63535;BME280;55128;50.230;18.944;2023-03-22T05:06:41;98241.66;;;6.42;84.58
63535;BME280;55128;50.230;18.944;2023-03-22T05:11:42;98245.25;;;6.39;84.46
63535;BME280;55128;50.230;18.944;2023-03-22T05:16:42;98241.75;;;6.88;82.54
63535;BME280;55128;50.230;18.944;2023-03-22T05:21:42;98246.63;;;6.75;83.90
63535;BME280;55128;50.230;18.944;2023-03-22T05:26:43;98246.50;;;7.01;82.82
63535;BME280;55128;50.230;18.944;2023-03-22T05:31:43;98241.69;;;6.89;83.44
63535;BME280;55128;50.230;18.944;2023-03-22T05:36:43;98246.41;;;7.05;82.64
63535;BME280;55128;50.230;18.944;2023-03-22T05:41:45;98248.22;;;6.79;82.90
63535;BME280;55128;50.230;18.944;2023-03-22T05:46:45;98253.84;;;7.17;81.86
63535;BME280;55128;50.230;18.944;2023-03-22T05:51:46;98260.84;;;7.18;82.17
63535;BME280;55128;50.230;18.944;2023-03-22T05:56:46;98259.91;;;7.43;81.07
63535;BME280;55128;50.230;18.944;2023-03-22T06:01:46;98257.44;;;7.60;81.54
63535;BME280;55128;50.230;18.944;2023-03-22T06:06:47;98257.75;;;7.74;80.91
63535;BME280;55128;50.230;18.944;2023-03-22T06:11:47;98259.91;;;7.87;80.33
63535;BME280;55128;50.230;18.944;2023-03-22T06:16:47;98265.13;;;7.88;79.52
63535;BME280;55128;50.230;18.944;2023-03-22T06:21:48;98269.47;;;8.11;79.16
63535;BME280;55128;50.230;18.944;2023-03-22T06:26:48;98259.84;;;8.09;78.97
63535;BME280;55128;50.230;18.944;2023-03-22T06:31:48;98262.41;;;8.32;78.87
63535;BME280;55128;50.230;18.944;2023-03-22T06:36:51;98259.44;;;8.61;78.19
63535;BME280;55128;50.230;18.944;2023-03-22T06:41:52;98254.81;;;8.66;76.68
63535;BME280;55128;50.230;18.944;2023-03-22T06:46:52;98258.16;;;8.90;76.34
63535;BME280;55128;50.230;18.944;2023-03-22T06:51:53;98265.03;;;8.94;76.74
63535;BME280;55128;50.230;18.944;2023-03-22T06:56:53;98259.75;;;9.13;76.12
63535;BME280;55128;50.230;18.944;2023-03-22T07:01:53;98261.25;;;9.00;76.01
63535;BME280;55128;50.230;18.944;2023-03-22T07:06:54;98268.97;;;9.23;74.04
63535;BME280;55128;50.230;18.944;2023-03-22T07:11:55;98264.41;;;9.46;74.23
63535;BME280;55128;50.230;18.944;2023-03-22T07:16:55;98272.53;;;9.79;72.03
63535;BME280;55128;50.230;18.944;2023-03-22T07:21:55;98276.41;;;9.91;71.14
63535;BME280;55128;50.230;18.944;2023-03-22T07:26:56;98278.91;;;9.75;71.18
63535;BME280;55128;50.230;18.944;2023-03-22T07:31:56;98279.06;;;10.26;69.89
63535;BME280;55128;50.230;18.944;2023-03-22T07:36:57;98268.75;;;10.39;70.08
63535;BME280;55128;50.230;18.944;2023-03-22T07:41:57;98267.13;;;11.36;68.33
63535;BME280;55128;50.230;18.944;2023-03-22T07:46:57;98270.31;;;12.81;67.29
63535;BME280;55128;50.230;18.944;2023-03-22T07:51:58;98268.19;;;14.80;58.55
63535;BME280;55128;50.230;18.944;2023-03-22T07:56:58;98273.09;;;14.33;57.05
63535;BME280;55128;50.230;18.944;2023-03-22T08:01:59;98265.69;;;13.84;57.08
63535;BME280;55128;50.230;18.944;2023-03-22T08:06:59;98265.78;;;14.10;57.03
63535;BME280;55128;50.230;18.944;2023-03-22T08:11:59;98262.91;;;13.86;56.94
63535;BME280;55128;50.230;18.944;2023-03-22T08:17:00;98262.84;;;14.27;56.02
63535;BME280;55128;50.230;18.944;2023-03-22T08:22:00;98265.09;;;14.61;54.94
63535;BME280;55128;50.230;18.944;2023-03-22T08:27:01;98254.41;;;14.86;54.76
63535;BME280;55128;50.230;18.944;2023-03-22T08:32:01;98260.38;;;14.24;54.81
63535;BME280;55128;50.230;18.944;2023-03-22T08:37:04;98267.75;;;13.93;55.58
63535;BME280;55128;50.230;18.944;2023-03-22T08:42:05;98255.78;;;13.72;56.64
63535;BME280;55128;50.230;18.944;2023-03-22T08:47:06;98250.59;;;13.70;57.19
63535;BME280;55128;50.230;18.944;2023-03-22T08:52:06;98251.94;;;13.63;56.91
63535;BME280;55128;50.230;18.944;2023-03-22T08:57:07;98253.66;;;13.21;58.39
63535;BME280;55128;50.230;18.944;2023-03-22T09:02:11;98239.28;;;13.52;58.84
63535;BME280;55128;50.230;18.944;2023-03-22T09:07:11;98240.72;;;13.85;58.21
63535;BME280;55128;50.230;18.944;2023-03-22T09:12:11;98245.00;;;14.28;57.18
63535;BME280;55128;50.230;18.944;2023-03-22T09:17:12;98245.22;;;14.65;56.69
63535;BME280;55128;50.230;18.944;2023-03-22T09:22:13;98241.31;;;15.33;55.47
63535;BME280;55128;50.230;18.944;2023-03-22T09:27:13;98234.72;;;16.00;54.03
63535;BME280;55128;50.230;18.944;2023-03-22T09:32:14;98237.53;;;16.33;51.50
63535;BME280;55128;50.230;18.944;2023-03-22T09:37:14;98234.22;;;16.30;50.54
63535;BME280;55128;50.230;18.944;2023-03-22T09:42:35;98227.44;;;16.37;51.30
63535;BME280;55128;50.230;18.944;2023-03-22T09:47:41;98231.84;;;17.30;49.21
63535;BME280;55128;50.230;18.944;2023-03-22T09:52:43;98209.47;;;17.75;48.31
63535;BME280;55128;50.230;18.944;2023-03-22T09:57:45;98218.19;;;18.32;46.50
63535;BME280;55128;50.230;18.944;2023-03-22T10:02:57;98221.28;;;20.61;43.36
63535;BME280;55128;50.230;18.944;2023-03-22T10:18:35;98199.59;;;19.43;43.70
63535;BME280;55128;50.230;18.944;2023-03-22T10:23:44;98193.34;;;19.02;44.65
63535;BME280;55128;50.230;18.944;2023-03-22T10:28:51;98192.34;;;19.85;42.25
63535;BME280;55128;50.230;18.944;2023-03-22T10:33:58;98191.66;;;20.22;40.94
63535;BME280;55128;50.230;18.944;2023-03-22T10:39:09;98193.56;;;20.88;40.47
63535;BME280;55128;50.230;18.944;2023-03-22T10:44:15;98198.84;;;20.31;41.58
63535;BME280;55128;50.230;18.944;2023-03-22T10:49:23;98190.38;;;20.26;41.27
63535;BME280;55128;50.230;18.944;2023-03-22T10:54:26;98181.19;;;19.49;42.34
63535;BME280;55128;50.230;18.944;2023-03-22T10:59:49;98179.19;;;19.51;43.18
63535;BME280;55128;50.230;18.944;2023-03-22T11:04:55;98173.47;;;20.14;40.99
63535;BME280;55128;50.230;18.944;2023-03-22T11:15:30;98174.16;;;20.45;40.08
63535;BME280;55128;50.230;18.944;2023-03-22T11:20:32;98157.00;;;20.46;39.93
63535;BME280;55128;50.230;18.944;2023-03-22T11:25:35;98158.56;;;20.19;39.20
63535;BME280;55128;50.230;18.944;2023-03-22T11:30:37;98149.38;;;19.83;40.22
63535;BME280;55128;50.230;18.944;2023-03-22T11:35:38;98144.75;;;19.45;40.78
63535;BME280;55128;50.230;18.944;2023-03-22T11:40:48;98136.69;;;19.45;41.55
63535;BME280;55128;50.230;18.944;2023-03-22T11:45:55;98130.88;;;19.69;41.90
63535;BME280;55128;50.230;18.944;2023-03-22T11:51:08;98127.84;;;18.61;43.11
63535;BME280;55128;50.230;18.944;2023-03-22T11:56:17;98126.03;;;18.93;43.30
63535;BME280;55128;50.230;18.944;2023-03-22T12:01:31;98117.28;;;18.70;43.90
63535;BME280;55128;50.230;18.944;2023-03-22T12:06:37;98104.47;;;18.31;43.22
63535;BME280;55128;50.230;18.944;2023-03-22T12:11:40;98103.09;;;18.89;43.38
63535;BME280;55128;50.230;18.944;2023-03-22T12:21:47;98103.94;;;18.89;43.48
63535;BME280;55128;50.230;18.944;2023-03-22T12:26:48;98088.91;;;18.56;43.60
63535;BME280;55128;50.230;18.944;2023-03-22T12:32:01;98088.34;;;18.83;43.74
63535;BME280;55128;50.230;18.944;2023-03-22T12:37:05;98098.34;;;19.12;43.21
63535;BME280;55128;50.230;18.944;2023-03-22T12:42:16;98073.94;;;18.94;43.03
63535;BME280;55128;50.230;18.944;2023-03-22T12:47:31;98074.13;;;19.12;43.37
63535;BME280;55128;50.230;18.944;2023-03-22T12:57:44;98065.81;;;19.44;41.57
63535;BME280;55128;50.230;18.944;2023-03-22T13:08:20;98055.38;;;18.81;43.35
63535;BME280;55128;50.230;18.944;2023-03-22T13:23:34;98053.84;;;18.98;41.47
63535;BME280;55128;50.230;18.944;2023-03-22T13:28:35;98038.72;;;19.07;41.17
63535;BME280;55128;50.230;18.944;2023-03-22T13:33:37;98036.63;;;19.39;40.78
63535;BME280;55128;50.230;18.944;2023-03-22T13:38:41;98024.72;;;19.13;40.30
63535;BME280;55128;50.230;18.944;2023-03-22T13:43:44;98033.06;;;19.19;40.29
63535;BME280;55128;50.230;18.944;2023-03-22T13:58:55;98027.56;;;19.79;38.60
63535;BME280;55128;50.230;18.944;2023-03-22T14:04:00;98020.78;;;19.75;38.13
63535;BME280;55128;50.230;18.944;2023-03-22T14:09:10;98018.34;;;19.53;38.86
63535;BME280;55128;50.230;18.944;2023-03-22T14:14:17;98012.81;;;19.64;38.76
63535;BME280;55128;50.230;18.944;2023-03-22T14:19:24;98017.06;;;19.96;38.91
63535;BME280;55128;50.230;18.944;2023-03-22T14:24:29;98009.00;;;19.47;39.17
63535;BME280;55128;50.230;18.944;2023-03-22T14:34:41;98013.25;;;19.30;39.78
63535;BME280;55128;50.230;18.944;2023-03-22T14:39:46;97998.06;;;19.10;40.51
63535;BME280;55128;50.230;18.944;2023-03-22T14:44:52;97986.59;;;19.08;40.82
63535;BME280;55128;50.230;18.944;2023-03-22T14:49:57;97992.69;;;18.90;40.89
63535;BME280;55128;50.230;18.944;2023-03-22T14:55:00;97988.00;;;18.92;41.36
63535;BME280;55128;50.230;18.944;2023-03-22T15:00:06;97990.25;;;18.46;41.20
63535;BME280;55128;50.230;18.944;2023-03-22T15:05:21;97977.91;;;18.03;42.18
63535;BME280;55128;50.230;18.944;2023-03-22T15:10:25;97975.28;;;18.13;42.88
63535;BME280;55128;50.230;18.944;2023-03-22T15:15:33;97968.03;;;18.04;43.40
63535;BME280;55128;50.230;18.944;2023-03-22T15:20:35;97977.84;;;17.94;43.66
63535;BME280;55128;50.230;18.944;2023-03-22T15:25:37;97970.63;;;17.73;44.03
63535;BME280;55128;50.230;18.944;2023-03-22T15:30:43;97976.66;;;17.65;43.84
63535;BME280;55128;50.230;18.944;2023-03-22T15:35:45;97966.34;;;17.61;43.93
63535;BME280;55128;50.230;18.944;2023-03-22T15:40:46;97963.28;;;17.75;44.29
63535;BME280;55128;50.230;18.944;2023-03-22T15:51:17;97963.84;;;17.48;44.41
63535;BME280;55128;50.230;18.944;2023-03-22T15:56:25;97957.41;;;17.39;44.94
63535;BME280;55128;50.230;18.944;2023-03-22T16:01:27;97963.16;;;17.14;45.32
63535;BME280;55128;50.230;18.944;2023-03-22T16:06:28;97955.13;;;17.14;45.16
63535;BME280;55128;50.230;18.944;2023-03-22T16:11:29;97950.72;;;17.13;45.35
63535;BME280;55128;50.230;18.944;2023-03-22T16:16:29;97952.59;;;17.01;46.24
63535;BME280;55128;50.230;18.944;2023-03-22T16:21:30;97957.31;;;17.08;46.19
63535;BME280;55128;50.230;18.944;2023-03-22T16:26:30;97953.38;;;16.92;46.23
63535;BME280;55128;50.230;18.944;2023-03-22T16:31:31;97948.50;;;16.74;46.75
63535;BME280;55128;50.230;18.944;2023-03-22T16:36:31;97942.81;;;16.56;46.81
63535;BME280;55128;50.230;18.944;2023-03-22T16:41:35;97947.97;;;16.48;46.67
63535;BME280;55128;50.230;18.944;2023-03-22T16:46:39;97958.31;;;16.30;47.35
63535;BME280;55128;50.230;18.944;2023-03-22T16:51:39;97954.31;;;16.13;47.98
63535;BME280;55128;50.230;18.944;2023-03-22T16:56:40;97959.28;;;16.06;47.88
63535;BME280;55128;50.230;18.944;2023-03-22T17:01:41;97960.78;;;15.88;48.40
63535;BME280;55128;50.230;18.944;2023-03-22T17:06:43;97961.84;;;15.74;48.96
63535;BME280;55128;50.230;18.944;2023-03-22T17:11:44;97956.53;;;15.61;49.53
63535;BME280;55128;50.230;18.944;2023-03-22T17:16:45;97967.22;;;15.50;49.61
63535;BME280;55128;50.230;18.944;2023-03-22T17:21:45;97966.47;;;15.36;50.09
63535;BME280;55128;50.230;18.944;2023-03-22T17:26:45;97967.28;;;15.26;50.63
63535;BME280;55128;50.230;18.944;2023-03-22T17:31:46;97969.53;;;15.08;51.10
63535;BME280;55128;50.230;18.944;2023-03-22T17:36:46;97976.19;;;15.02;51.22
63535;BME280;55128;50.230;18.944;2023-03-22T17:41:48;97970.09;;;14.76;51.85
63535;BME280;55128;50.230;18.944;2023-03-22T17:46:49;97983.19;;;14.55;52.99
63535;BME280;55128;50.230;18.944;2023-03-22T17:51:49;97983.78;;;14.34;53.12
63535;BME280;55128;50.230;18.944;2023-03-22T17:56:50;97983.34;;;14.15;53.23
63535;BME280;55128;50.230;18.944;2023-03-22T18:01:50;97983.91;;;13.94;54.23
63535;BME280;55128;50.230;18.944;2023-03-22T18:06:51;97986.72;;;13.80;54.49
63535;BME280;55128;50.230;18.944;2023-03-22T18:11:51;97994.38;;;13.59;56.00
63535;BME280;55128;50.230;18.944;2023-03-22T18:16:51;97985.16;;;13.37;56.41
63535;BME280;55128;50.230;18.944;2023-03-22T18:21:54;97989.84;;;13.34;56.62
63535;BME280;55128;50.230;18.944;2023-03-22T18:26:56;97992.00;;;13.14;57.66
63535;BME280;55128;50.230;18.944;2023-03-22T18:32:02;97994.94;;;12.97;57.44
63535;BME280;55128;50.230;18.944;2023-03-22T18:37:02;97989.75;;;12.81;58.12
63535;BME280;55128;50.230;18.944;2023-03-22T18:42:03;98004.66;;;12.56;59.66
63535;BME280;55128;50.230;18.944;2023-03-22T18:47:03;97994.84;;;12.71;58.22
63535;BME280;55128;50.230;18.944;2023-03-22T18:52:06;97989.69;;;12.68;59.00
63535;BME280;55128;50.230;18.944;2023-03-22T18:57:08;97982.56;;;12.69;59.01
63535;BME280;55128;50.230;18.944;2023-03-22T19:02:10;97991.50;;;12.82;58.49
63535;BME280;55128;50.230;18.944;2023-03-22T19:07:11;97992.00;;;12.87;58.22
63535;BME280;55128;50.230;18.944;2023-03-22T19:12:12;97992.25;;;12.84;58.87
63535;BME280;55128;50.230;18.944;2023-03-22T19:17:12;97990.75;;;12.93;58.66
63535;BME280;55128;50.230;18.944;2023-03-22T19:22:13;97989.88;;;13.07;58.39
63535;BME280;55128;50.230;18.944;2023-03-22T19:27:15;97986.66;;;13.01;58.42
63535;BME280;55128;50.230;18.944;2023-03-22T19:32:16;97990.63;;;13.09;58.29
63535;BME280;55128;50.230;18.944;2023-03-22T19:37:16;97990.81;;;13.06;58.66
63535;BME280;55128;50.230;18.944;2023-03-22T19:42:17;97985.84;;;13.14;58.03
63535;BME280;55128;50.230;18.944;2023-03-22T19:47:17;97988.94;;;13.20;58.10
63535;BME280;55128;50.230;18.944;2023-03-22T19:52:17;97983.66;;;13.06;58.54
63535;BME280;55128;50.230;18.944;2023-03-22T19:57:18;97981.69;;;13.22;57.97
63535;BME280;55128;50.230;18.944;2023-03-22T20:02:18;97985.06;;;13.12;58.22
63535;BME280;55128;50.230;18.944;2023-03-22T20:07:18;97980.38;;;13.15;58.18
63535;BME280;55128;50.230;18.944;2023-03-22T20:12:24;97981.22;;;13.03;58.79
63535;BME280;55128;50.230;18.944;2023-03-22T20:17:24;97973.50;;;12.98;58.64
63535;BME280;55128;50.230;18.944;2023-03-22T20:22:25;97972.06;;;13.07;58.25
63535;BME280;55128;50.230;18.944;2023-03-22T20:27:26;97967.91;;;13.03;58.75
63535;BME280;55128;50.230;18.944;2023-03-22T20:32:26;97967.56;;;13.08;58.12
63535;BME280;55128;50.230;18.944;2023-03-22T20:37:27;97970.31;;;12.93;58.69
63535;BME280;55128;50.230;18.944;2023-03-22T20:42:27;97975.84;;;12.90;58.91
63535;BME280;55128;50.230;18.944;2023-03-22T20:47:28;97972.53;;;12.87;59.09
63535;BME280;55128;50.230;18.944;2023-03-22T20:52:29;97973.72;;;12.68;59.48
63535;BME280;55128;50.230;18.944;2023-03-22T20:57:29;97975.63;;;12.66;59.62
63535;BME280;55128;50.230;18.944;2023-03-22T21:02:29;97968.06;;;12.60;59.59
63535;BME280;55128;50.230;18.944;2023-03-22T21:07:31;97971.41;;;12.49;59.89
63535;BME280;55128;50.230;18.944;2023-03-22T21:12:31;97963.72;;;12.44;60.07
63535;BME280;55128;50.230;18.944;2023-03-22T21:17:33;97971.59;;;12.46;59.97
63535;BME280;55128;50.230;18.944;2023-03-22T21:22:33;97976.47;;;12.39;60.19
63535;BME280;55128;50.230;18.944;2023-03-22T21:27:34;97969.44;;;12.38;60.14
63535;BME280;55128;50.230;18.944;2023-03-22T21:32:36;97972.84;;;12.40;60.18
63535;BME280;55128;50.230;18.944;2023-03-22T21:37:37;97966.38;;;12.44;60.65
63535;BME280;55128;50.230;18.944;2023-03-22T21:42:37;97972.19;;;12.37;60.46
63535;BME280;55128;50.230;18.944;2023-03-22T21:47:53;97974.41;;;12.16;61.27
63535;BME280;55128;50.230;18.944;2023-03-22T21:52:57;97976.47;;;12.25;60.91
63535;BME280;55128;50.230;18.944;2023-03-22T21:57:58;97974.88;;;12.22;61.19
63535;BME280;55128;50.230;18.944;2023-03-22T22:02:59;97976.78;;;12.20;60.76
63535;BME280;55128;50.230;18.944;2023-03-22T22:08:00;97979.06;;;12.12;61.49
63535;BME280;55128;50.230;18.944;2023-03-22T22:13:00;97985.44;;;12.24;60.96
63535;BME280;55128;50.230;18.944;2023-03-22T22:18:01;97981.72;;;12.12;60.91
63535;BME280;55128;50.230;18.944;2023-03-22T22:23:04;97986.78;;;12.17;61.23
63535;BME280;55128;50.230;18.944;2023-03-22T22:28:05;97985.34;;;11.97;61.34
63535;BME280;55128;50.230;18.944;2023-03-22T22:33:05;97988.09;;;11.95;61.93
63535;BME280;55128;50.230;18.944;2023-03-22T22:38:06;97979.34;;;11.93;61.99
63535;BME280;55128;50.230;18.944;2023-03-22T22:43:06;97980.31;;;11.92;61.98
63535;BME280;55128;50.230;18.944;2023-03-22T22:48:06;97985.19;;;11.84;62.18
63535;BME280;55128;50.230;18.944;2023-03-22T22:53:07;97986.91;;;11.71;63.01
63535;BME280;55128;50.230;18.944;2023-03-22T22:58:07;97979.13;;;11.67;62.91
63535;BME280;55128;50.230;18.944;2023-03-22T23:03:07;97981.78;;;11.53;63.27
63535;BME280;55128;50.230;18.944;2023-03-22T23:08:08;97986.91;;;11.56;63.28
63535;BME280;55128;50.230;18.944;2023-03-22T23:13:08;97988.34;;;11.32;63.59
63535;BME280;55128;50.230;18.944;2023-03-22T23:18:09;97981.88;;;11.21;63.98
63535;BME280;55128;50.230;18.944;2023-03-22T23:23:11;97982.25;;;10.85;65.32
63535;BME280;55128;50.230;18.944;2023-03-22T23:28:12;97991.94;;;10.70;65.55
63535;BME280;55128;50.230;18.944;2023-03-22T23:33:13;97992.78;;;10.55;66.31
63535;BME280;55128;50.230;18.944;2023-03-22T23:38:13;97993.56;;;10.41;66.31
63535;BME280;55128;50.230;18.944;2023-03-22T23:43:13;97997.25;;;10.21;67.15
63535;BME280;55128;50.230;18.944;2023-03-22T23:48:14;98006.06;;;10.05;67.52
63535;BME280;55128;50.230;18.944;2023-03-22T23:53:15;97993.97;;;9.84;67.97
63535;BME280;55128;50.230;18.944;2023-03-22T23:58:15;97995.56;;;9.70;67.96
